Impacts TAF Board INFO
FOR SITUATIONAL AWARENESS. NOT TO BE USED FOR FLIGHT PLANNING PURPOSES.
IDs:

KTCL - Tuscaloosa Rgnl, AL, US

Issued at 0721 UTC 17 Aug 2018
Updated at 0932 UTC 17 Aug 2018
Potential Impact None Slight Moderate High
Time<<17/22Z 17/23Z 18/00Z 18/01Z 18/02Z 18/03Z 18/04Z 18/05Z 18/06Z 18/07Z 18/08Z 18/09Z 18/10Z>>
Type PRVL PRVL PRVL PRVL PRVL PRVL PRVL PRVL
VIS >6 >6 >6 >6 >6 >6 >6 >6
CIG 35 35 35 35 35 35 35 35
Cover BKN BKN BKN BKN BKN BKN BKN BKN
FltCat VFR VFR VFR VFR VFR VFR VFR VFR
WX VCTS VCTS VCTS VCTS VCTS VCTS VCTS VCTS
WDir 200 200 200 200 200 200 200 200
WSpd 8 8 8 8 8 8 8 8
WGst -- -- -- -- -- -- -- --

Raw TAF
KTCL 170721Z 1707/1806 17004KT 6SM BR BKN009
  FM171700 20008KT P6SM VCTS BKN035CB


METAR Board
Radar Display
Forecast Discussion

FOR SITUATIONAL AWARENESS. NOT TO BE USED FOR FLIGHT PLANNING PURPOSES.